Time,TemperatureF,DewpointF,PressureIn,WindDirection,WindDirectionDegrees,WindSpeedMPH,WindSpeedGustMPH,Humidity,HourlyPrecipIn,Conditions,Clouds,dailyrainin,SoftwareType,DateUTC
2015-02-27 00:12:00,-3.0,-8.0,-100.00,SSE,150,19.0,21.0,80,-99.99,,,0.00,,2015-02-27 07:12:00,
2015-02-27 00:22:00,-3.0,-8.0,-100.00,SSE,150,19.0,21.0,80,-99.99,,,0.00,,2015-02-27 07:22:00,
2015-02-27 00:32:00,-3.0,-8.0,-100.00,SSE,150,19.0,21.0,80,-99.99,,,0.00,,2015-02-27 07:32:00,
2015-02-27 00:52:00,-4.0,-9.0,-100.00,SSE,155,21.0,22.0,81,-99.99,,,0.00,,2015-02-27 07:52:00,
2015-02-27 01:12:00,-4.0,-9.0,-100.00,SSE,155,21.0,22.0,80,-99.99,,,0.00,,2015-02-27 08:12:00,
2015-02-27 01:52:00,-5.0,-10.0,-100.00,SSE,160,17.0,18.0,79,-99.99,,,0.00,,2015-02-27 08:52:00,
2015-02-27 02:12:00,-4.0,-9.0,-100.00,SSE,160,19.0,20.0,79,-99.99,,,0.00,,2015-02-27 09:12:00,
2015-02-27 02:52:00,-6.0,-11.0,-100.00,SSE,160,14.0,17.0,79,-99.99,,,0.00,,2015-02-27 09:52:00,
2015-02-27 03:13:00,-5.0,-10.0,-100.00,SSE,160,19.0,19.0,79,-99.99,,,0.00,,2015-02-27 10:13:00,
2015-02-27 03:52:00,-6.0,-10.0,-100.00,SSE,155,16.0,17.0,79,-99.99,,,0.00,,2015-02-27 10:52:00,
2015-02-27 04:12:00,-5.0,-10.0,-100.00,SSE,155,17.0,18.0,79,-99.99,,,0.00,,2015-02-27 11:12:00,
2015-02-27 04:53:00,-5.0,-10.0,-100.00,SSE,155,16.0,17.0,79,-99.99,,,0.00,,2015-02-27 11:53:00,
2015-02-27 05:12:00,-5.0,-10.0,-100.00,SSE,150,14.0,17.0,79,-99.99,,,0.00,,2015-02-27 12:12:00,
2015-02-27 05:52:00,-6.0,-10.0,-100.00,SE,145,16.0,17.0,79,-99.99,,,0.00,,2015-02-27 12:52:00,
2015-02-27 06:12:00,-6.0,-10.0,-100.00,SE,140,16.0,17.0,79,-99.99,,,0.00,,2015-02-27 13:12:00,
2015-02-27 06:52:00,-5.0,-10.0,-100.00,SSE,155,15.0,17.0,79,-99.99,,,0.00,,2015-02-27 13:52:00,
2015-02-27 07:12:00,-6.0,-11.0,-100.00,SSE,155,15.0,16.0,79,-99.99,,,0.00,,2015-02-27 14:12:00,
2015-02-27 07:53:00,-5.0,-10.0,-100.00,SSE,155,14.0,16.0,79,-99.99,,,0.00,,2015-02-27 14:53:00,
2015-02-27 08:11:00,-5.0,-10.0,-100.00,SSE,150,15.0,16.0,79,-99.99,,,0.00,,2015-02-27 15:11:00,
2015-02-27 08:53:00,-3.0,-8.0,-100.00,SE,145,12.0,14.0,79,-99.99,,,0.00,,2015-02-27 15:53:00,
2015-02-27 09:13:00,-2.0,-7.0,-100.00,SSE,155,13.0,14.0,80,-99.99,,,0.00,,2015-02-27 16:13:00,
2015-02-27 09:53:00,-1.0,-5.0,-100.00,SSE,150,16.0,16.0,81,-99.99,,,0.00,,2015-02-27 16:53:00,
2015-02-27 10:12:00,-1.0,-5.0,-100.00,SE,140,14.0,16.0,81,-99.99,,,0.00,,2015-02-27 17:12:00,
2015-02-27 10:52:00,1.0,-3.0,-100.00,SE,140,14.0,16.0,82,-99.99,,,0.00,,2015-02-27 17:52:00,
2015-02-27 11:13:00,1.0,-3.0,-100.00,SE,145,14.0,17.0,83,-99.99,,,0.00,,2015-02-27 18:13:00,
2015-02-27 11:53:00,4.0,0.0,-100.00,SE,145,14.0,17.0,84,-99.99,,,0.00,,2015-02-27 18:53:00,
2015-02-27 12:13:00,5.0,1.0,-100.00,SE,145,13.0,16.0,85,-99.99,,,0.00,,2015-02-27 19:13:00,
2015-02-27 15:53:00,16.0,2.0,-100.00,ESE,115,9.0,10.0,54,-99.99,,,0.00,,2015-02-27 22:53:00,
2015-02-27 16:12:00,18.0,1.0,-100.00,ENE,65,4.0,8.0,45,-99.99,,,0.00,,2015-02-27 23:12:00,